This is the latest recevied weather packets stored in our database for station/object KI7JYE. If no packets are shown the sender has not sent any weather packets the latest 10 day(s).
| Time | Temp. | Humidity | Pressure | Rain* | Wind** | Luminosity | Snow |
|---|---|---|---|---|---|---|---|
| 1777694653 | 16.11° C | 65% | 1014.5 hPa | 0 mm | - | 0 W/m² | - |
| 1777694349 | 16.11° C | 68% | 1014.6 hPa | 0 mm | - | 0 W/m² | - |
| 1777694046 | 16.11° C | 72% | 1014.2 hPa | 0 mm | - | 0 W/m² | - |
| 1777693743 | 16.11° C | 71% | 1014.1 hPa | 0 mm | - | 0 W/m² | - |
| 1777693442 | 15.56° C | 71% | 1013.9 hPa | 0 mm | - | 0 W/m² | - |
| 1777693140 | 15.56° C | 77% | 1014.3 hPa | 0 mm | - | 0 W/m² | - |
| 1777692837 | 15.56° C | 76% | 1014.1 hPa | 0 mm | - | 0 W/m² | - |
| 1777692533 | 15.56° C | 76% | 1014 hPa | 0 mm | - | 0 W/m² | - |
| 1777692229 | 15.56° C | 76% | 1014 hPa | 0 mm | - | 0 W/m² | - |
| 1777691927 | 15.56° C | 76% | 1013.9 hPa | 0 mm | - | 1 W/m² | - |
| 1777691625 | 16.11° C | 75% | 1014.1 hPa | 0 mm | - | 3 W/m² | - |
| 1777691323 | 16.11° C | 75% | 1014.1 hPa | 0 mm | - | 4 W/m² | - |
| 1777691021 | 16.11° C | 74% | 1013.8 hPa | 0 mm | - | 8 W/m² | - |
| 1777690718 | 16.67° C | 74% | 1013.7 hPa | 0 mm | - | 10 W/m² | - |
| 1777690416 | 16.67° C | 73% | 1013.8 hPa | 0 mm | - | 14 W/m² | - |
| 1777690114 | 16.67° C | 73% | 1013.8 hPa | 0 mm | - | 16 W/m² | - |
| 1777689811 | 17.22° C | 72% | 1013.7 hPa | 0 mm | - | 19 W/m² | - |
| 1777689509 | 17.22° C | 71% | 1013.6 hPa | 0 mm | - | 23 W/m² | - |
| 1777689207 | 17.22° C | 70% | 1013.7 hPa | 0 mm | - | 28 W/m² | - |
| 1777688904 | 17.78° C | 70% | 1013.4 hPa | 0 mm | - | 32 W/m² | - |
| 1777688297 | 18.33° C | 68% | 1013.5 hPa | 0 mm | - | 42 W/m² | - |
| 1777674056 | 23.89° C | 51% | 1013.6 hPa | 0 mm | - | 504 W/m² | - |
| 1777673752 | 23.89° C | 53% | 1014 hPa | 0 mm | - | 492 W/m² | - |
| 1777673450 | 23.89° C | 53% | 1013.7 hPa | 0 mm | - | 494 W/m² | - |
| 1777673151 | 22.78° C | 54% | 1013.7 hPa | 0 mm | - | 529 W/m² | - |
* Rain latest hour (hover to see other rain measurements)
** Current wind speed in m/s (hover to see current wind gust speed)